createdAt,value
2022-11-20T00:00:29.563Z,22.70
2022-11-20T00:01:29.575Z,25.50
2022-11-20T00:02:29.544Z,21.10
2022-11-20T00:03:29.538Z,23.20
2022-11-20T00:04:29.527Z,22.70
2022-11-20T00:05:29.526Z,21.90
2022-11-20T00:06:29.541Z,22.40
2022-11-20T00:07:29.596Z,22.80
2022-11-20T00:08:29.501Z,21.90
2022-11-20T00:09:29.494Z,26.00
2022-11-20T00:10:29.485Z,22.00
2022-11-20T00:11:29.508Z,22.50
2022-11-20T00:12:29.482Z,25.40
2022-11-20T00:13:29.484Z,25.80
2022-11-20T00:14:29.463Z,25.80
2022-11-20T00:15:29.452Z,27.20
2022-11-20T00:16:29.469Z,31.10
2022-11-20T00:17:29.426Z,33.30
2022-11-20T00:18:30.432Z,34.20
2022-11-20T00:19:29.425Z,34.30
2022-11-20T00:20:29.417Z,34.50
2022-11-20T00:21:29.439Z,30.20
2022-11-20T00:22:29.401Z,27.80
2022-11-20T00:23:29.396Z,30.10
2022-11-20T00:24:29.383Z,27.30
2022-11-20T00:25:29.377Z,26.60
2022-11-20T00:26:29.395Z,28.00
2022-11-20T00:27:29.373Z,24.90
2022-11-20T00:28:29.360Z,26.30
2022-11-20T00:29:29.348Z,27.20
2022-11-20T00:30:29.342Z,24.90
2022-11-20T00:31:29.358Z,25.40
2022-11-20T00:32:29.326Z,21.40
2022-11-20T00:33:29.320Z,24.00
2022-11-20T00:34:29.309Z,25.60
2022-11-20T00:35:29.307Z,20.80
2022-11-20T00:36:29.328Z,21.00
2022-11-20T00:37:29.291Z,23.60
2022-11-20T00:38:29.281Z,23.90
2022-11-20T00:39:29.282Z,22.90
2022-11-20T00:40:29.271Z,22.40
2022-11-20T00:41:29.288Z,22.20
2022-11-20T00:42:29.257Z,25.50
2022-11-20T00:43:29.250Z,23.40
2022-11-20T00:44:29.242Z,22.00
2022-11-20T00:45:29.237Z,24.50
2022-11-20T00:46:29.254Z,21.80
2022-11-20T00:47:29.217Z,24.10
2022-11-20T00:48:29.217Z,22.40
2022-11-20T00:49:29.208Z,23.50
2022-11-20T00:50:29.199Z,19.30
2022-11-20T00:51:29.219Z,19.90
2022-11-20T00:52:29.182Z,21.00
2022-11-20T00:53:29.175Z,21.10
2022-11-20T00:54:29.168Z,22.20
2022-11-20T00:55:29.160Z,22.70
2022-11-20T00:56:29.176Z,23.60
2022-11-20T00:57:29.147Z,23.90
2022-11-20T00:58:29.169Z,21.70
2022-11-20T00:59:29.135Z,24.00
2022-11-20T01:00:29.132Z,20.80
2022-11-20T01:01:29.186Z,25.00
2022-11-20T01:02:29.114Z,23.30
2022-11-20T01:03:29.103Z,23.40
2022-11-20T01:04:29.104Z,25.70
2022-11-20T01:05:29.095Z,25.60
2022-11-20T01:06:29.088Z,24.10
2022-11-20T01:07:29.137Z,27.30
2022-11-20T01:08:29.065Z,27.20
2022-11-20T01:09:29.059Z,26.60
2022-11-20T01:10:29.051Z,25.60
2022-11-20T01:11:29.050Z,27.70
2022-11-20T01:12:29.062Z,27.30
2022-11-20T01:13:29.034Z,27.10
2022-11-20T01:14:29.016Z,24.60
2022-11-20T01:15:30.015Z,25.20
2022-11-20T01:16:29.012Z,27.70
2022-11-20T01:17:29.025Z,29.80
2022-11-20T01:18:28.998Z,25.20
2022-11-20T01:19:28.997Z,29.00
2022-11-20T01:20:28.979Z,26.80
2022-11-20T01:21:28.976Z,28.90
2022-11-20T01:22:28.996Z,26.10
2022-11-20T01:23:28.970Z,28.70
2022-11-20T01:24:28.957Z,25.30
2022-11-20T01:25:28.951Z,28.20
2022-11-20T01:26:28.952Z,23.80
2022-11-20T01:27:28.960Z,24.90
2022-11-20T01:28:28.935Z,26.10
2022-11-20T01:29:28.924Z,25.40
2022-11-20T01:30:28.915Z,24.70
2022-11-20T01:31:28.909Z,23.90
2022-11-20T01:32:28.926Z,28.70
2022-11-20T01:33:28.889Z,25.70
2022-11-20T01:34:28.887Z,25.10
2022-11-20T01:35:28.882Z,25.50
2022-11-20T01:36:28.871Z,26.20
2022-11-20T01:37:28.890Z,22.70
2022-11-20T01:38:28.857Z,25.60
2022-11-20T01:39:28.851Z,24.90
2022-11-20T01:40:28.844Z,25.90
2022-11-20T01:41:28.837Z,26.40
2022-11-20T01:42:28.854Z,24.50
2022-11-20T01:43:28.826Z,24.10
2022-11-20T01:44:28.817Z,23.00
2022-11-20T01:45:28.807Z,23.10
2022-11-20T01:46:28.799Z,22.20
2022-11-20T01:47:28.823Z,27.50
2022-11-20T01:48:28.792Z,23.70
2022-11-20T01:49:28.778Z,23.90
2022-11-20T01:50:28.773Z,23.20
2022-11-20T01:51:28.763Z,24.50
2022-11-20T01:52:28.780Z,23.00
2022-11-20T01:53:28.750Z,24.80
2022-11-20T01:54:28.744Z,25.50
2022-11-20T01:55:28.737Z,25.30
2022-11-20T01:56:28.730Z,23.20
2022-11-20T01:57:28.750Z,21.40
2022-11-20T01:58:28.715Z,24.50
2022-11-20T01:59:28.708Z,23.20
2022-11-20T02:00:28.698Z,23.20
2022-11-20T02:01:28.746Z,25.10
2022-11-20T02:02:28.711Z,24.50
2022-11-20T02:03:28.681Z,25.40
2022-11-20T02:04:28.672Z,23.30
2022-11-20T02:05:28.668Z,22.10
2022-11-20T02:06:28.655Z,25.30
2022-11-20T02:07:28.742Z,27.90
2022-11-20T02:08:28.648Z,27.00
2022-11-20T02:09:28.637Z,26.30
2022-11-20T02:10:28.629Z,27.80
2022-11-20T02:11:28.628Z,25.90
2022-11-20T02:12:28.638Z,25.20
2022-11-20T02:13:28.602Z,26.30
2022-11-20T02:14:28.607Z,24.50
2022-11-20T02:15:30.433Z,26.90
2022-11-20T02:16:29.584Z,26.70
2022-11-20T02:17:28.601Z,24.10
2022-11-20T02:18:28.599Z,24.80
2022-11-20T02:19:28.568Z,23.90
2022-11-20T02:20:28.560Z,26.70
2022-11-20T02:21:28.548Z,24.70
2022-11-20T02:22:28.566Z,21.50
2022-11-20T02:23:28.534Z,25.30
2022-11-20T02:24:28.530Z,23.70
2022-11-20T02:25:28.521Z,25.10
2022-11-20T02:26:28.512Z,23.60
2022-11-20T02:27:28.535Z,22.70
2022-11-20T02:28:28.496Z,22.50
2022-11-20T02:29:28.490Z,25.00
2022-11-20T02:30:28.484Z,25.20
2022-11-20T02:31:28.477Z,25.10
2022-11-20T02:32:28.468Z,21.70
2022-11-20T02:33:28.485Z,24.30
2022-11-20T02:34:28.455Z,25.60
2022-11-20T02:35:28.444Z,22.50
2022-11-20T02:36:28.436Z,24.90
2022-11-20T02:37:28.451Z,24.70
2022-11-20T02:38:28.417Z,24.10
2022-11-20T02:39:28.413Z,22.50
2022-11-20T02:40:28.404Z,22.40
2022-11-20T02:41:28.400Z,24.50
2022-11-20T02:42:28.393Z,24.30
2022-11-20T02:43:28.407Z,24.00
2022-11-20T02:44:28.376Z,26.30
2022-11-20T02:45:28.372Z,22.90
2022-11-20T02:46:28.364Z,21.40
2022-11-20T02:47:28.357Z,24.70
2022-11-20T02:48:33.572Z,22.40
2022-11-20T02:49:30.341Z,23.00
2022-11-20T02:50:28.331Z,21.90
2022-11-20T02:51:28.325Z,23.80
2022-11-20T02:52:28.320Z,26.50
2022-11-20T02:53:28.333Z,22.40
2022-11-20T02:54:28.302Z,23.00
2022-11-20T02:55:28.296Z,23.20
2022-11-20T02:56:28.282Z,25.00
2022-11-20T02:57:28.277Z,26.60
2022-11-20T02:58:28.291Z,25.40
2022-11-20T02:59:28.266Z,27.80
2022-11-20T03:00:28.257Z,27.80
2022-11-20T03:01:28.282Z,27.10
2022-11-20T03:02:28.240Z,22.40
2022-11-20T03:03:28.255Z,24.50
2022-11-20T03:04:28.226Z,28.10
2022-11-20T03:05:28.220Z,25.40
2022-11-20T03:06:28.209Z,26.70
2022-11-20T03:07:28.264Z,25.80
2022-11-20T03:08:28.221Z,29.40
2022-11-20T03:09:28.189Z,24.60
2022-11-20T03:10:28.182Z,24.80
2022-11-20T03:11:28.181Z,23.80
2022-11-20T03:12:28.166Z,28.10
2022-11-20T03:13:28.183Z,26.90
2022-11-20T03:14:28.149Z,24.50
2022-11-20T03:15:28.142Z,25.80
2022-11-20T03:16:28.137Z,27.30
2022-11-20T03:17:28.129Z,24.40
2022-11-20T03:18:28.149Z,25.60
2022-11-20T03:19:28.111Z,26.60
2022-11-20T03:20:28.109Z,29.20
2022-11-20T03:21:28.103Z,25.40
2022-11-20T03:22:28.097Z,27.00
2022-11-20T03:23:28.115Z,30.30
2022-11-20T03:24:28.080Z,25.20
2022-11-20T03:25:28.073Z,24.80
2022-11-20T03:26:28.066Z,29.90
2022-11-20T03:27:28.053Z,30.10
2022-11-20T03:28:28.070Z,28.00
2022-11-20T03:29:28.046Z,28.10
2022-11-20T03:30:30.713Z,30.80
2022-11-20T03:31:29.028Z,31.30
2022-11-20T03:32:28.015Z,27.80
2022-11-20T03:33:28.033Z,30.20
2022-11-20T03:34:28.004Z,30.10
2022-11-20T03:35:27.998Z,29.30
2022-11-20T03:36:27.975Z,29.50
2022-11-20T03:37:28.979Z,31.10
2022-11-20T03:38:27.994Z,30.80
2022-11-20T03:39:27.967Z,29.70
2022-11-20T03:40:27.957Z,27.40
2022-11-20T03:41:27.954Z,39.40
2022-11-20T03:42:27.944Z,36.00
2022-11-20T03:43:27.960Z,34.40
2022-11-20T03:44:27.927Z,32.70
2022-11-20T03:45:27.919Z,36.90
2022-11-20T03:46:27.908Z,33.40
2022-11-20T03:47:27.903Z,36.50
2022-11-20T03:48:27.923Z,38.80
2022-11-20T03:49:27.892Z,40.60
2022-11-20T03:50:27.900Z,33.90
2022-11-20T03:51:27.878Z,36.80
2022-11-20T03:52:27.872Z,37.90
2022-11-20T03:53:27.896Z,39.80
2022-11-20T03:54:27.852Z,36.40
2022-11-20T03:55:27.847Z,40.00
2022-11-20T03:56:27.844Z,34.60
2022-11-20T03:57:27.838Z,43.00
2022-11-20T03:58:27.946Z,46.70
2022-11-20T03:59:27.817Z,40.60
2022-11-20T04:00:27.812Z,39.20
2022-11-20T04:01:27.835Z,35.60
2022-11-20T04:02:27.797Z,37.40
2022-11-20T04:03:27.790Z,35.00
2022-11-20T04:04:27.804Z,35.50
2022-11-20T04:05:27.771Z,33.90
2022-11-20T04:06:27.768Z,34.60
2022-11-20T04:07:27.821Z,32.60
2022-11-20T04:08:27.752Z,36.40
2022-11-20T04:09:27.767Z,33.30
2022-11-20T04:10:27.734Z,38.50
2022-11-20T04:11:27.730Z,44.40
2022-11-20T04:12:27.723Z,40.40
2022-11-20T04:13:27.715Z,43.10
2022-11-20T04:14:27.730Z,41.90
2022-11-20T04:15:27.700Z,39.20
2022-11-20T04:16:27.699Z,42.10
2022-11-20T04:17:27.685Z,42.20
2022-11-20T04:18:27.680Z,40.90
2022-11-20T04:19:27.700Z,41.90
2022-11-20T04:20:27.665Z,41.20
2022-11-20T04:21:27.660Z,47.30
2022-11-20T04:22:27.650Z,39.70
2022-11-20T04:23:28.978Z,42.50
2022-11-20T04:24:28.667Z,42.70
2022-11-20T04:25:27.632Z,41.20
2022-11-20T04:26:27.611Z,44.30
2022-11-20T04:27:28.621Z,43.10
2022-11-20T04:28:27.607Z,42.20
2022-11-20T04:29:27.624Z,45.10
2022-11-20T04:30:27.603Z,47.70
2022-11-20T04:31:27.585Z,43.30
2022-11-20T04:32:27.576Z,49.40
2022-11-20T04:33:28.974Z,46.80
2022-11-20T04:34:29.592Z,43.50
2022-11-20T04:35:27.558Z,46.80
2022-11-20T04:36:27.548Z,48.30
2022-11-20T04:37:27.541Z,50.30
2022-11-20T04:38:27.535Z,51.50
2022-11-20T04:39:27.552Z,47.00
2022-11-20T04:40:27.522Z,55.80
2022-11-20T04:41:27.511Z,42.50
2022-11-20T04:42:27.510Z,44.00
2022-11-20T04:43:27.504Z,49.30
2022-11-20T04:44:27.516Z,49.60
2022-11-20T04:45:27.482Z,54.30
2022-11-20T04:46:27.480Z,49.70
2022-11-20T04:47:27.470Z,48.50
2022-11-20T04:48:27.464Z,50.90
2022-11-20T04:49:27.496Z,51.80
2022-11-20T04:50:27.449Z,49.30
2022-11-20T04:51:27.440Z,52.40
2022-11-20T04:52:27.434Z,54.40
2022-11-20T04:53:27.427Z,59.10
2022-11-20T04:54:27.447Z,49.10
2022-11-20T04:55:27.416Z,55.10
2022-11-20T04:56:27.407Z,53.30
2022-11-20T04:57:27.400Z,52.10
2022-11-20T04:58:27.392Z,60.00
2022-11-20T04:59:27.407Z,60.30
2022-11-20T05:00:27.650Z,59.00
2022-11-20T05:01:27.390Z,59.30
2022-11-20T05:02:28.364Z,57.60
2022-11-20T05:03:27.354Z,51.60
2022-11-20T05:04:27.434Z,60.60
2022-11-20T05:05:27.346Z,59.60
2022-11-20T05:06:27.333Z,60.70
2022-11-20T05:07:27.385Z,54.00
2022-11-20T05:08:27.321Z,56.50
2022-11-20T05:09:27.341Z,55.40
2022-11-20T05:10:27.324Z,60.00
2022-11-20T05:11:27.295Z,65.00
2022-11-20T05:12:27.289Z,59.10
2022-11-20T05:13:27.280Z,63.80
2022-11-20T05:14:27.302Z,65.10
2022-11-20T05:15:27.268Z,61.30
2022-11-20T05:16:27.253Z,64.70
2022-11-20T05:17:27.251Z,66.00
2022-11-20T05:18:27.240Z,65.80
2022-11-20T05:19:27.268Z,68.90
2022-11-20T05:20:27.223Z,64.70
2022-11-20T05:21:27.219Z,63.60
2022-11-20T05:22:27.215Z,61.40
2022-11-20T05:23:27.211Z,61.20
2022-11-20T05:24:27.203Z,67.50
2022-11-20T05:25:27.218Z,70.40
2022-11-20T05:26:27.182Z,67.00
2022-11-20T05:27:27.177Z,63.50
2022-11-20T05:28:27.170Z,66.30
2022-11-20T05:29:27.164Z,63.80
2022-11-20T05:30:27.198Z,66.00
2022-11-20T05:31:28.446Z,64.10
2022-11-20T05:32:28.138Z,69.70
2022-11-20T05:33:27.135Z,64.70
2022-11-20T05:34:27.130Z,63.20
2022-11-20T05:35:27.142Z,76.00
2022-11-20T05:36:27.112Z,71.00
2022-11-20T05:37:27.107Z,73.10
2022-11-20T05:38:27.098Z,62.70
2022-11-20T05:39:27.085Z,64.70
2022-11-20T05:40:27.109Z,73.00
2022-11-20T05:41:27.066Z,69.00
2022-11-20T05:42:27.065Z,68.90
2022-11-20T05:43:27.058Z,74.50
2022-11-20T05:44:27.049Z,75.50
2022-11-20T05:45:27.064Z,68.80
2022-11-20T05:46:29.260Z,58.00
2022-11-20T05:47:28.022Z,67.40
2022-11-20T05:48:27.017Z,74.70
2022-11-20T05:49:27.005Z,74.70
2022-11-20T05:50:27.022Z,78.80
2022-11-20T05:51:26.994Z,78.00
2022-11-20T05:52:26.983Z,79.60
2022-11-20T05:53:27.848Z,84.10
2022-11-20T05:54:27.970Z,85.90
2022-11-20T05:55:26.988Z,84.60
2022-11-20T05:56:26.956Z,95.10
2022-11-20T05:57:26.947Z,86.00
2022-11-20T05:58:26.942Z,84.80
2022-11-20T05:59:26.936Z,86.00
2022-11-20T06:00:26.955Z,77.70
2022-11-20T06:01:26.927Z,97.80
2022-11-20T06:02:26.939Z,74.40
2022-11-20T06:03:26.907Z,74.50
2022-11-20T06:04:26.901Z,86.40
2022-11-20T06:05:26.912Z,84.50
2022-11-20T06:06:26.888Z,95.60
2022-11-20T06:07:26.918Z,91.90
2022-11-20T06:08:26.862Z,82.30
2022-11-20T06:09:26.858Z,97.30
2022-11-20T06:10:26.880Z,80.90
2022-11-20T06:11:26.841Z,80.10
2022-11-20T06:12:26.847Z,100.30
2022-11-20T06:13:26.830Z,82.20
2022-11-20T06:14:26.821Z,91.90
2022-11-20T06:15:26.838Z,86.80
2022-11-20T06:16:26.802Z,86.20
2022-11-20T06:17:26.806Z,92.00
2022-11-20T06:18:26.793Z,83.60
2022-11-20T06:19:26.785Z,97.90
2022-11-20T06:20:26.806Z,100.40
2022-11-20T06:21:26.771Z,85.90
2022-11-20T06:22:26.765Z,87.40
2022-11-20T06:23:26.758Z,93.20
2022-11-20T06:24:26.747Z,84.90
2022-11-20T06:25:26.761Z,99.60
2022-11-20T06:26:26.734Z,102.90
2022-11-20T06:27:26.727Z,98.80
2022-11-20T06:28:26.719Z,99.10
2022-11-20T06:29:30.187Z,97.40
2022-11-20T06:30:28.723Z,92.00
2022-11-20T06:31:26.692Z,87.50
2022-11-20T06:32:26.689Z,86.40
2022-11-20T06:33:26.678Z,97.60
2022-11-20T06:34:26.674Z,82.30
2022-11-20T06:35:26.697Z,91.20
2022-11-20T06:36:26.663Z,76.10
2022-11-20T06:37:26.649Z,80.90
2022-11-20T06:38:26.640Z,84.50
2022-11-20T06:39:26.638Z,86.10
2022-11-20T06:40:26.651Z,90.80
2022-11-20T06:41:26.617Z,85.10
2022-11-20T06:42:26.611Z,99.30
2022-11-20T06:43:26.605Z,90.20
2022-11-20T06:44:26.607Z,88.80
2022-11-20T06:45:26.614Z,86.40
2022-11-20T06:46:26.584Z,86.50
2022-11-20T06:47:26.575Z,95.70
2022-11-20T06:48:26.569Z,101.50
2022-11-20T06:49:26.561Z,89.30
2022-11-20T06:50:26.582Z,99.60
2022-11-20T06:51:26.541Z,92.20
2022-11-20T06:52:26.538Z,95.90
2022-11-20T06:53:26.529Z,86.50
2022-11-20T06:54:26.522Z,91.30
2022-11-20T06:55:26.541Z,90.60
2022-11-20T06:56:26.507Z,90.10
2022-11-20T06:57:26.501Z,86.60
2022-11-20T06:58:26.494Z,90.40
2022-11-20T06:59:26.488Z,86.90
2022-11-20T07:00:26.508Z,100.50
2022-11-20T07:01:26.533Z,112.90
2022-11-20T07:02:26.464Z,99.70
2022-11-20T07:03:26.459Z,107.30
2022-11-20T07:04:26.448Z,114.70
2022-11-20T07:05:26.467Z,112.20
2022-11-20T07:06:26.435Z,106.90
2022-11-20T07:07:26.476Z,114.00
2022-11-20T07:08:26.425Z,103.50
2022-11-20T07:09:26.830Z,103.70
2022-11-20T07:10:26.426Z,103.30
2022-11-20T07:11:26.396Z,119.50
2022-11-20T07:12:26.384Z,101.30
2022-11-20T07:13:26.375Z,107.10
2022-11-20T07:14:26.359Z,98.30
2022-11-20T07:15:27.389Z,113.30
2022-11-20T07:16:27.360Z,114.80
2022-11-20T07:17:26.353Z,106.40
2022-11-20T07:18:26.345Z,105.70
2022-11-20T07:19:26.336Z,126.50
2022-11-20T07:20:26.355Z,108.30
2022-11-20T07:21:26.323Z,106.50
2022-11-20T07:22:26.313Z,104.10
2022-11-20T07:23:26.305Z,100.40
2022-11-20T07:24:26.296Z,96.20
2022-11-20T07:25:26.290Z,109.10
2022-11-20T07:26:26.306Z,103.50
2022-11-20T07:27:26.269Z,100.90
2022-11-20T07:28:26.265Z,98.60
2022-11-20T07:29:26.260Z,99.00
2022-11-20T07:30:26.282Z,103.60
2022-11-20T07:31:26.247Z,90.90
2022-11-20T07:32:26.238Z,96.50
2022-11-20T07:33:26.235Z,97.40
2022-11-20T07:34:26.223Z,106.40
2022-11-20T07:35:26.215Z,105.40
2022-11-20T07:36:26.229Z,107.20
2022-11-20T07:37:26.201Z,113.40
2022-11-20T07:38:26.191Z,109.70
2022-11-20T07:39:26.183Z,102.70
2022-11-20T07:40:26.176Z,95.70
2022-11-20T07:41:26.196Z,100.50
2022-11-20T07:42:26.157Z,95.80
2022-11-20T07:43:26.199Z,104.10
2022-11-20T07:44:26.146Z,102.10
2022-11-20T07:45:26.138Z,116.00
2022-11-20T07:46:26.160Z,111.00
2022-11-20T07:47:26.132Z,109.40
2022-11-20T07:48:26.117Z,109.20
2022-11-20T07:49:26.110Z,110.70
2022-11-20T07:50:26.148Z,98.20
2022-11-20T07:51:26.113Z,97.40
2022-11-20T07:52:27.087Z,99.50
2022-11-20T07:53:26.085Z,96.60
2022-11-20T07:54:26.072Z,103.50
2022-11-20T07:55:26.058Z,93.20
2022-11-20T07:56:26.078Z,95.70
2022-11-20T07:57:28.427Z,96.90
2022-11-20T07:58:27.037Z,106.00
2022-11-20T07:59:26.036Z,103.80
2022-11-20T08:00:26.193Z,107.30
2022-11-20T08:01:26.054Z,113.30
2022-11-20T08:02:26.014Z,106.00
2022-11-20T08:03:26.005Z,107.60
2022-11-20T08:04:25.995Z,121.60
2022-11-20T08:05:25.985Z,122.50
2022-11-20T08:06:26.008Z,111.20
2022-11-20T08:07:26.031Z,107.00
2022-11-20T08:08:25.964Z,102.40
2022-11-20T08:09:25.958Z,100.30
2022-11-20T08:10:26.029Z,94.70
2022-11-20T08:11:25.971Z,104.40
2022-11-20T08:12:25.936Z,112.90
2022-11-20T08:13:25.927Z,106.70
2022-11-20T08:14:25.914Z,96.80
2022-11-20T08:15:25.913Z,97.20
2022-11-20T08:16:25.927Z,96.70
2022-11-20T08:17:25.898Z,93.60
2022-11-20T08:18:33.381Z,100.70
2022-11-20T08:19:27.885Z,93.20
2022-11-20T08:20:25.875Z,92.00
2022-11-20T08:21:25.893Z,101.50
2022-11-20T08:22:25.865Z,113.50
2022-11-20T08:23:25.852Z,110.00
2022-11-20T08:24:25.849Z,113.50
2022-11-20T08:25:25.835Z,112.00
2022-11-20T08:26:25.858Z,129.40
2022-11-20T08:27:25.824Z,109.20
2022-11-20T08:28:25.821Z,100.10
2022-11-20T08:29:25.807Z,111.40
2022-11-20T08:30:25.800Z,108.30
2022-11-20T08:31:25.822Z,116.40
2022-11-20T08:32:25.779Z,119.50
2022-11-20T08:33:25.777Z,115.60
2022-11-20T08:34:25.770Z,112.20
2022-11-20T08:35:25.760Z,113.60
2022-11-20T08:36:25.782Z,116.80
2022-11-20T08:37:25.748Z,111.70
2022-11-20T08:38:25.741Z,106.80
2022-11-20T08:39:25.728Z,99.80
2022-11-20T08:40:25.731Z,110.60
2022-11-20T08:41:25.744Z,107.50
2022-11-20T08:42:25.709Z,95.80
2022-11-20T08:43:25.701Z,134.70
2022-11-20T08:44:25.694Z,107.20
2022-11-20T08:45:28.456Z,116.20
2022-11-20T08:46:26.699Z,124.40
2022-11-20T08:47:25.670Z,116.30
2022-11-20T08:48:25.661Z,139.10
2022-11-20T08:49:25.659Z,120.80
2022-11-20T08:50:25.647Z,120.00
2022-11-20T08:51:25.669Z,109.40
2022-11-20T08:52:25.634Z,92.70
2022-11-20T08:53:25.625Z,95.40
2022-11-20T08:54:25.618Z,111.30
2022-11-20T08:55:25.612Z,104.50
2022-11-20T08:56:25.632Z,97.70
2022-11-20T08:57:25.598Z,87.40
2022-11-20T08:58:25.590Z,97.60
2022-11-20T09:00:03.628Z,96.50
2022-11-20T09:00:27.574Z,93.20
2022-11-20T09:01:25.816Z,110.60
2022-11-20T09:02:25.563Z,105.60
2022-11-20T09:03:29.959Z,90.60
2022-11-20T09:04:27.549Z,98.90
2022-11-20T09:05:25.544Z,94.50
2022-11-20T09:06:25.556Z,95.30
2022-11-20T09:07:25.598Z,94.40
2022-11-20T09:08:26.517Z,90.70
2022-11-20T09:09:25.766Z,86.00
2022-11-20T09:10:25.675Z,78.60
2022-11-20T09:11:25.521Z,80.00
2022-11-20T09:12:25.495Z,81.50
2022-11-20T09:13:25.483Z,77.20
2022-11-20T09:14:25.476Z,78.60
2022-11-20T09:15:25.472Z,86.90
2022-11-20T09:16:25.490Z,83.40
2022-11-20T09:17:25.452Z,84.80
2022-11-20T09:18:25.444Z,80.40
2022-11-20T09:19:41.104Z,92.10
2022-11-20T09:20:27.428Z,90.70
2022-11-20T09:21:25.476Z,95.40
2022-11-20T09:22:25.413Z,81.70
2022-11-20T09:23:25.406Z,82.90
2022-11-20T09:24:25.398Z,92.00
2022-11-20T09:25:25.391Z,98.60
2022-11-20T09:26:25.406Z,87.30
2022-11-20T09:27:25.374Z,96.70
2022-11-20T09:28:25.364Z,84.20
2022-11-20T09:29:25.362Z,83.50
2022-11-20T09:30:25.355Z,83.30
2022-11-20T09:31:25.341Z,81.30
2022-11-20T09:32:25.358Z,80.20
2022-11-20T09:33:25.328Z,85.10
2022-11-20T09:34:25.323Z,82.90
2022-11-20T09:35:25.318Z,84.30
2022-11-20T09:36:25.307Z,79.90
2022-11-20T09:37:25.325Z,82.00
2022-11-20T09:38:25.297Z,92.90
2022-11-20T09:39:25.290Z,86.60
2022-11-20T09:40:25.281Z,87.40
2022-11-20T09:41:25.270Z,84.90
2022-11-20T09:42:25.287Z,86.70
2022-11-20T09:43:25.252Z,71.10
2022-11-20T09:44:25.248Z,84.60
2022-11-20T09:45:25.239Z,82.60
2022-11-20T09:46:25.232Z,89.20
2022-11-20T09:47:25.248Z,96.30
2022-11-20T09:48:25.215Z,93.30
2022-11-20T09:49:30.713Z,87.30
2022-11-20T09:50:27.192Z,89.80
2022-11-20T09:51:25.189Z,82.00
2022-11-20T09:52:25.215Z,86.10
2022-11-20T09:53:25.173Z,89.30
2022-11-20T09:54:25.170Z,85.90
2022-11-20T09:55:25.164Z,86.40
2022-11-20T09:56:25.154Z,79.40
2022-11-20T09:57:25.174Z,78.10
2022-11-20T09:58:25.141Z,77.60
2022-11-20T09:59:25.135Z,79.70
2022-11-20T10:00:25.127Z,86.40
2022-11-20T10:01:25.165Z,88.40
2022-11-20T10:02:25.144Z,93.10
2022-11-20T10:03:25.105Z,82.90
2022-11-20T10:04:25.107Z,82.50
2022-11-20T10:05:25.104Z,87.10
2022-11-20T10:06:25.085Z,85.10
2022-11-20T10:07:33.299Z,85.50
2022-11-20T10:08:27.070Z,81.40
2022-11-20T10:09:25.089Z,78.50
2022-11-20T10:10:25.058Z,83.50
2022-11-20T10:11:25.052Z,86.30
2022-11-20T10:12:26.063Z,78.50
2022-11-20T10:13:25.033Z,86.70
2022-11-20T10:14:25.031Z,77.10
2022-11-20T10:15:25.014Z,83.30
2022-11-20T10:16:25.011Z,85.30
2022-11-20T10:17:25.025Z,78.70
2022-11-20T10:18:24.993Z,85.10
2022-11-20T10:19:24.982Z,80.10
2022-11-20T10:20:24.973Z,78.70
2022-11-20T10:21:24.972Z,73.30
2022-11-20T10:22:24.985Z,84.00
2022-11-20T10:23:26.166Z,75.40
2022-11-20T10:24:25.940Z,78.20
2022-11-20T10:25:24.942Z,79.40
2022-11-20T10:26:24.935Z,79.20
2022-11-20T10:27:24.945Z,81.50
2022-11-20T10:28:24.918Z,76.80
2022-11-20T10:29:25.156Z,81.80
2022-11-20T10:30:24.902Z,83.30
2022-11-20T10:31:24.894Z,81.70
2022-11-20T10:32:24.909Z,74.30
2022-11-20T10:33:24.876Z,82.10
2022-11-20T10:34:24.878Z,82.00
2022-11-20T10:35:24.865Z,74.30
2022-11-20T10:36:24.865Z,74.00
2022-11-20T10:37:24.878Z,77.70
2022-11-20T10:38:24.839Z,67.50
2022-11-20T10:39:25.064Z,59.70
2022-11-20T10:40:24.822Z,64.40
2022-11-20T10:41:24.814Z,60.80
2022-11-20T10:42:24.833Z,63.90
2022-11-20T10:43:24.802Z,65.00
2022-11-20T10:44:24.793Z,63.50
2022-11-20T10:45:24.794Z,63.00
2022-11-20T10:46:24.778Z,62.70
2022-11-20T10:47:24.795Z,65.90
2022-11-20T10:48:24.779Z,58.50
2022-11-20T10:49:24.783Z,61.60
2022-11-20T10:50:24.751Z,64.30
2022-11-20T10:51:24.742Z,63.80
2022-11-20T10:52:24.761Z,64.30
2022-11-20T10:53:24.726Z,60.50
2022-11-20T10:54:24.723Z,65.20
2022-11-20T10:55:24.712Z,65.30
2022-11-20T10:56:24.700Z,64.10
2022-11-20T10:57:24.721Z,67.80
2022-11-20T10:58:24.686Z,67.30
2022-11-20T10:59:24.892Z,63.70
2022-11-20T11:00:24.671Z,67.80
2022-11-20T11:01:24.837Z,63.70
2022-11-20T11:02:24.691Z,65.20
2022-11-20T11:03:24.646Z,64.80
2022-11-20T11:04:24.637Z,69.30
2022-11-20T11:05:24.622Z,69.30
2022-11-20T11:06:25.625Z,65.10
2022-11-20T11:07:24.715Z,69.40
2022-11-20T11:08:24.608Z,69.20
2022-11-20T11:09:24.781Z,70.60
2022-11-20T11:10:24.593Z,64.70
2022-11-20T11:11:24.595Z,66.70
2022-11-20T11:12:24.608Z,64.60
2022-11-20T11:13:24.574Z,65.70
2022-11-20T11:14:24.564Z,71.90
2022-11-20T11:15:24.559Z,68.10
2022-11-20T11:16:24.559Z,65.50
2022-11-20T11:17:24.545Z,66.00
2022-11-20T11:18:24.570Z,72.40
2022-11-20T11:19:24.902Z,70.10
2022-11-20T11:20:24.517Z,72.70
2022-11-20T11:21:24.514Z,72.90
2022-11-20T11:22:24.509Z,66.80
2022-11-20T11:23:24.524Z,64.80
2022-11-20T11:24:41.738Z,63.40
2022-11-20T11:25:26.477Z,75.80
2022-11-20T11:26:24.472Z,72.30
2022-11-20T11:27:24.463Z,71.80
2022-11-20T11:28:24.481Z,65.10
2022-11-20T11:29:24.853Z,69.10
2022-11-20T11:30:24.444Z,69.60
2022-11-20T11:31:24.438Z,72.20
2022-11-20T11:32:24.425Z,63.80
2022-11-20T11:33:24.447Z,70.80
2022-11-20T11:34:24.407Z,70.80
2022-11-20T11:35:24.402Z,72.70
2022-11-20T11:36:24.397Z,67.30
2022-11-20T11:37:24.385Z,64.60
2022-11-20T11:38:24.402Z,66.80
2022-11-20T11:39:24.898Z,64.90
2022-11-20T11:40:25.588Z,62.50
2022-11-20T11:41:24.352Z,65.10
2022-11-20T11:42:24.345Z,66.50
2022-11-20T11:43:24.360Z,63.70
2022-11-20T11:44:24.331Z,70.20
2022-11-20T11:45:24.317Z,61.70
2022-11-20T11:46:24.316Z,59.20
2022-11-20T11:47:24.326Z,55.80
2022-11-20T11:48:24.311Z,57.00
2022-11-20T11:49:25.739Z,62.00
2022-11-20T11:50:24.277Z,57.30
2022-11-20T11:51:24.267Z,53.30
2022-11-20T11:52:24.262Z,57.10
2022-11-20T11:53:24.278Z,53.10
2022-11-20T11:54:24.247Z,59.80
2022-11-20T11:55:24.239Z,64.90
2022-11-20T11:56:24.220Z,60.20
2022-11-20T11:57:24.222Z,63.20
2022-11-20T11:58:24.236Z,60.40
2022-11-20T11:59:24.600Z,65.00
2022-11-20T12:00:24.195Z,63.20
2022-11-20T12:01:24.188Z,64.30
2022-11-20T12:02:24.231Z,61.50
2022-11-20T12:03:24.201Z,67.50
2022-11-20T12:04:24.161Z,66.40
2022-11-20T12:05:24.155Z,72.80
2022-11-20T12:06:24.144Z,71.00
2022-11-20T12:07:45.469Z,75.70
2022-11-20T12:08:26.207Z,72.50
2022-11-20T12:09:24.381Z,72.90
2022-11-20T12:10:24.118Z,66.10
2022-11-20T12:11:24.109Z,71.30
2022-11-20T12:12:24.099Z,68.00
2022-11-20T12:13:24.116Z,72.90
2022-11-20T12:14:24.080Z,69.10
2022-11-20T12:15:24.079Z,74.00
2022-11-20T12:16:24.071Z,75.70
2022-11-20T12:17:24.055Z,72.40
2022-11-20T12:18:24.075Z,70.00
2022-11-20T12:19:24.264Z,73.90
2022-11-20T12:20:24.036Z,76.20
2022-11-20T12:21:24.033Z,74.70
2022-11-20T12:22:24.020Z,75.90
2022-11-20T12:23:24.040Z,72.30
2022-11-20T12:24:25.002Z,76.60
2022-11-20T12:25:23.999Z,75.80
2022-11-20T12:26:23.984Z,73.10
2022-11-20T12:27:23.986Z,73.60
2022-11-20T12:28:23.999Z,71.30
2022-11-20T12:29:24.370Z,77.20
2022-11-20T12:30:23.951Z,75.50
2022-11-20T12:31:23.943Z,74.20
2022-11-20T12:32:23.938Z,76.50
2022-11-20T12:33:23.955Z,74.30
2022-11-20T12:34:23.922Z,82.70
2022-11-20T12:35:23.922Z,76.00
2022-11-20T12:36:23.911Z,77.00
2022-11-20T12:37:23.901Z,77.80
2022-11-20T12:38:23.922Z,73.90
2022-11-20T12:39:24.233Z,74.40
2022-11-20T12:40:23.877Z,70.40
2022-11-20T12:41:23.859Z,68.70
2022-11-20T12:42:23.861Z,71.80
2022-11-20T12:43:23.850Z,71.20
2022-11-20T12:44:23.882Z,77.80
2022-11-20T12:45:23.838Z,67.80
2022-11-20T12:46:23.833Z,67.10
2022-11-20T12:47:23.823Z,67.00
2022-11-20T12:48:23.812Z,67.70
2022-11-20T12:49:24.117Z,75.90